sensor_id;sensor_type;location;lat;lon;timestamp;P1;durP1;ratioP1;P2;durP2;ratioP2
7933;SDS011;4012;48.896;9.192;2023-05-21T00:01:40;13.37;;;10.73;;
7933;SDS011;4012;48.896;9.192;2023-05-21T00:04:06;13.03;;;9.93;;
7933;SDS011;4012;48.896;9.192;2023-05-21T00:06:34;11.20;;;10.10;;
7933;SDS011;4012;48.896;9.192;2023-05-21T00:09:03;12.60;;;10.53;;
7933;SDS011;4012;48.896;9.192;2023-05-21T00:11:29;10.93;;;9.83;;
7933;SDS011;4012;48.896;9.192;2023-05-21T00:13:56;11.00;;;9.90;;
7933;SDS011;4012;48.896;9.192;2023-05-21T00:16:22;18.33;;;10.43;;
7933;SDS011;4012;48.896;9.192;2023-05-21T00:18:48;13.10;;;11.13;;
7933;SDS011;4012;48.896;9.192;2023-05-21T00:21:19;11.77;;;10.40;;
7933;SDS011;4012;48.896;9.192;2023-05-21T00:23:50;12.67;;;10.37;;
7933;SDS011;4012;48.896;9.192;2023-05-21T00:26:19;11.57;;;10.33;;
7933;SDS011;4012;48.896;9.192;2023-05-21T00:28:45;13.90;;;10.30;;
7933;SDS011;4012;48.896;9.192;2023-05-21T00:31:11;14.50;;;11.07;;
7933;SDS011;4012;48.896;9.192;2023-05-21T00:33:36;12.20;;;10.97;;
7933;SDS011;4012;48.896;9.192;2023-05-21T00:36:02;11.67;;;10.47;;
7933;SDS011;4012;48.896;9.192;2023-05-21T00:38:31;13.83;;;10.97;;
7933;SDS011;4012;48.896;9.192;2023-05-21T00:41:05;11.90;;;10.47;;
7933;SDS011;4012;48.896;9.192;2023-05-21T00:43:31;13.97;;;10.93;;
7933;SDS011;4012;48.896;9.192;2023-05-21T00:45:59;14.40;;;10.80;;
7933;SDS011;4012;48.896;9.192;2023-05-21T00:48:25;11.50;;;10.30;;
7933;SDS011;4012;48.896;9.192;2023-05-21T00:50:51;12.13;;;10.80;;
7933;SDS011;4012;48.896;9.192;2023-05-21T00:53:17;12.80;;;10.63;;
7933;SDS011;4012;48.896;9.192;2023-05-21T00:55:43;11.97;;;10.60;;
7933;SDS011;4012;48.896;9.192;2023-05-21T00:58:10;12.77;;;11.00;;
7933;SDS011;4012;48.896;9.192;2023-05-21T01:00:36;11.60;;;10.43;;
7933;SDS011;4012;48.896;9.192;2023-05-21T01:03:02;11.73;;;10.50;;
7933;SDS011;4012;48.896;9.192;2023-05-21T01:05:28;13.27;;;11.87;;
7933;SDS011;4012;48.896;9.192;2023-05-21T01:07:54;12.47;;;10.90;;
7933;SDS011;4012;48.896;9.192;2023-05-21T01:10:22;12.27;;;10.63;;
7933;SDS011;4012;48.896;9.192;2023-05-21T01:12:48;13.47;;;10.83;;
7933;SDS011;4012;48.896;9.192;2023-05-21T01:15:15;12.57;;;11.27;;
7933;SDS011;4012;48.896;9.192;2023-05-21T01:17:40;12.57;;;10.53;;
7933;SDS011;4012;48.896;9.192;2023-05-21T01:20:06;14.63;;;11.37;;
7933;SDS011;4012;48.896;9.192;2023-05-21T01:22:56;14.03;;;11.37;;
7933;SDS011;4012;48.896;9.192;2023-05-21T01:25:22;12.13;;;10.13;;
7933;SDS011;4012;48.896;9.192;2023-05-21T01:27:48;14.03;;;10.70;;
7933;SDS011;4012;48.896;9.192;2023-05-21T01:30:14;12.43;;;11.03;;
7933;SDS011;4012;48.896;9.192;2023-05-21T01:32:52;14.20;;;11.07;;
7933;SDS011;4012;48.896;9.192;2023-05-21T01:35:20;12.73;;;11.03;;
7933;SDS011;4012;48.896;9.192;2023-05-21T01:37:54;13.87;;;11.90;;
7933;SDS011;4012;48.896;9.192;2023-05-21T01:40:28;13.70;;;11.90;;
7933;SDS011;4012;48.896;9.192;2023-05-21T01:43:00;13.90;;;12.03;;
7933;SDS011;4012;48.896;9.192;2023-05-21T01:45:27;12.43;;;11.13;;
7933;SDS011;4012;48.896;9.192;2023-05-21T01:47:55;12.73;;;11.43;;
7933;SDS011;4012;48.896;9.192;2023-05-21T01:50:24;13.40;;;11.87;;
7933;SDS011;4012;48.896;9.192;2023-05-21T01:52:51;14.33;;;12.03;;
7933;SDS011;4012;48.896;9.192;2023-05-21T01:55:19;14.07;;;12.20;;
7933;SDS011;4012;48.896;9.192;2023-05-21T01:57:49;15.17;;;12.27;;
7933;SDS011;4012;48.896;9.192;2023-05-21T02:00:16;12.80;;;11.50;;
7933;SDS011;4012;48.896;9.192;2023-05-21T02:02:42;13.70;;;12.23;;
7933;SDS011;4012;48.896;9.192;2023-05-21T02:05:08;13.47;;;11.57;;
7933;SDS011;4012;48.896;9.192;2023-05-21T02:07:33;13.13;;;11.70;;
7933;SDS011;4012;48.896;9.192;2023-05-21T02:10:01;15.40;;;11.73;;
7933;SDS011;4012;48.896;9.192;2023-05-21T02:12:27;14.30;;;12.20;;
7933;SDS011;4012;48.896;9.192;2023-05-21T02:14:53;17.30;;;11.67;;
7933;SDS011;4012;48.896;9.192;2023-05-21T02:17:20;14.20;;;12.70;;
7933;SDS011;4012;48.896;9.192;2023-05-21T02:19:46;13.67;;;11.73;;
7933;SDS011;4012;48.896;9.192;2023-05-21T02:22:12;13.67;;;12.03;;
7933;SDS011;4012;48.896;9.192;2023-05-21T02:24:38;15.70;;;12.13;;
7933;SDS011;4012;48.896;9.192;2023-05-21T02:27:03;14.40;;;12.70;;
7933;SDS011;4012;48.896;9.192;2023-05-21T02:29:30;17.43;;;12.63;;
7933;SDS011;4012;48.896;9.192;2023-05-21T02:31:56;14.33;;;12.83;;
7933;SDS011;4012;48.896;9.192;2023-05-21T02:34:22;14.67;;;11.93;;
7933;SDS011;4012;48.896;9.192;2023-05-21T02:36:48;13.90;;;12.40;;
7933;SDS011;4012;48.896;9.192;2023-05-21T02:39:18;14.33;;;12.17;;
7933;SDS011;4012;48.896;9.192;2023-05-21T02:41:44;13.90;;;12.10;;
7933;SDS011;4012;48.896;9.192;2023-05-21T02:44:11;14.47;;;12.03;;
7933;SDS011;4012;48.896;9.192;2023-05-21T02:46:37;16.50;;;13.73;;
7933;SDS011;4012;48.896;9.192;2023-05-21T02:49:02;15.47;;;12.00;;
7933;SDS011;4012;48.896;9.192;2023-05-21T02:51:28;14.83;;;12.80;;
7933;SDS011;4012;48.896;9.192;2023-05-21T02:53:54;13.93;;;11.57;;
7933;SDS011;4012;48.896;9.192;2023-05-21T02:56:20;13.73;;;11.83;;
7933;SDS011;4012;48.896;9.192;2023-05-21T02:58:45;15.20;;;12.70;;
7933;SDS011;4012;48.896;9.192;2023-05-21T03:01:11;15.37;;;12.40;;
7933;SDS011;4012;48.896;9.192;2023-05-21T03:03:36;14.97;;;12.83;;
7933;SDS011;4012;48.896;9.192;2023-05-21T03:06:02;16.17;;;13.40;;
7933;SDS011;4012;48.896;9.192;2023-05-21T03:08:27;15.50;;;12.63;;
7933;SDS011;4012;48.896;9.192;2023-05-21T03:10:53;14.30;;;11.73;;
7933;SDS011;4012;48.896;9.192;2023-05-21T03:13:19;15.80;;;13.43;;
7933;SDS011;4012;48.896;9.192;2023-05-21T03:15:45;13.63;;;12.20;;
7933;SDS011;4012;48.896;9.192;2023-05-21T03:18:11;15.03;;;13.00;;
7933;SDS011;4012;48.896;9.192;2023-05-21T03:20:37;14.97;;;12.13;;
7933;SDS011;4012;48.896;9.192;2023-05-21T03:23:07;13.57;;;11.40;;
7933;SDS011;4012;48.896;9.192;2023-05-21T03:25:36;14.63;;;12.60;;
7933;SDS011;4012;48.896;9.192;2023-05-21T03:28:02;16.60;;;12.60;;
7933;SDS011;4012;48.896;9.192;2023-05-21T03:30:28;14.57;;;12.90;;
7933;SDS011;4012;48.896;9.192;2023-05-21T03:32:53;15.67;;;12.40;;
7933;SDS011;4012;48.896;9.192;2023-05-21T03:35:20;14.47;;;12.87;;
7933;SDS011;4012;48.896;9.192;2023-05-21T03:37:46;14.03;;;12.63;;
7933;SDS011;4012;48.896;9.192;2023-05-21T03:40:12;14.80;;;11.60;;
7933;SDS011;4012;48.896;9.192;2023-05-21T03:42:38;14.80;;;12.60;;
7933;SDS011;4012;48.896;9.192;2023-05-21T03:45:04;16.40;;;12.57;;
7933;SDS011;4012;48.896;9.192;2023-05-21T03:47:30;13.47;;;12.03;;
7933;SDS011;4012;48.896;9.192;2023-05-21T03:49:56;15.70;;;13.80;;
7933;SDS011;4012;48.896;9.192;2023-05-21T03:52:22;15.47;;;13.83;;
7933;SDS011;4012;48.896;9.192;2023-05-21T03:54:47;18.00;;;13.00;;
7933;SDS011;4012;48.896;9.192;2023-05-21T03:57:13;14.57;;;11.87;;
7933;SDS011;4012;48.896;9.192;2023-05-21T03:59:38;15.17;;;13.57;;
7933;SDS011;4012;48.896;9.192;2023-05-21T04:02:04;15.03;;;13.43;;
7933;SDS011;4012;48.896;9.192;2023-05-21T04:04:29;19.50;;;14.00;;
7933;SDS011;4012;48.896;9.192;2023-05-21T04:06:55;14.93;;;12.70;;
7933;SDS011;4012;48.896;9.192;2023-05-21T04:09:20;14.93;;;12.30;;
7933;SDS011;4012;48.896;9.192;2023-05-21T04:11:46;13.80;;;12.20;;
7933;SDS011;4012;48.896;9.192;2023-05-21T04:14:12;16.87;;;13.00;;
7933;SDS011;4012;48.896;9.192;2023-05-21T04:16:38;14.60;;;13.10;;
7933;SDS011;4012;48.896;9.192;2023-05-21T04:19:04;15.10;;;12.40;;
7933;SDS011;4012;48.896;9.192;2023-05-21T04:21:30;15.37;;;13.07;;
7933;SDS011;4012;48.896;9.192;2023-05-21T04:23:56;15.67;;;13.03;;
7933;SDS011;4012;48.896;9.192;2023-05-21T04:26:22;14.27;;;12.47;;
7933;SDS011;4012;48.896;9.192;2023-05-21T04:28:49;14.87;;;13.03;;
7933;SDS011;4012;48.896;9.192;2023-05-21T04:31:15;13.97;;;12.17;;
7933;SDS011;4012;48.896;9.192;2023-05-21T04:33:40;14.13;;;11.83;;
7933;SDS011;4012;48.896;9.192;2023-05-21T04:36:09;13.60;;;12.00;;
7933;SDS011;4012;48.896;9.192;2023-05-21T04:38:35;20.13;;;11.87;;
7933;SDS011;4012;48.896;9.192;2023-05-21T04:41:01;14.27;;;11.40;;
7933;SDS011;4012;48.896;9.192;2023-05-21T04:43:30;14.43;;;11.73;;
7933;SDS011;4012;48.896;9.192;2023-05-21T04:45:56;14.17;;;12.23;;
7933;SDS011;4012;48.896;9.192;2023-05-21T04:48:22;15.00;;;12.83;;
7933;SDS011;4012;48.896;9.192;2023-05-21T04:50:53;14.67;;;12.60;;
7933;SDS011;4012;48.896;9.192;2023-05-21T04:53:21;13.57;;;11.97;;
7933;SDS011;4012;48.896;9.192;2023-05-21T04:55:47;14.87;;;11.67;;
7933;SDS011;4012;48.896;9.192;2023-05-21T04:58:13;14.57;;;12.20;;
7933;SDS011;4012;48.896;9.192;2023-05-21T05:00:41;15.73;;;12.37;;
7933;SDS011;4012;48.896;9.192;2023-05-21T05:03:10;15.10;;;11.90;;
7933;SDS011;4012;48.896;9.192;2023-05-21T05:05:35;15.57;;;11.63;;
7933;SDS011;4012;48.896;9.192;2023-05-21T05:08:01;15.50;;;12.13;;
7933;SDS011;4012;48.896;9.192;2023-05-21T05:10:27;14.83;;;12.37;;
7933;SDS011;4012;48.896;9.192;2023-05-21T05:12:53;16.53;;;11.73;;
7933;SDS011;4012;48.896;9.192;2023-05-21T05:15:19;12.80;;;11.43;;
7933;SDS011;4012;48.896;9.192;2023-05-21T05:17:44;13.13;;;11.50;;
7933;SDS011;4012;48.896;9.192;2023-05-21T05:20:14;12.97;;;11.60;;
7933;SDS011;4012;48.896;9.192;2023-05-21T05:22:40;13.57;;;11.23;;
7933;SDS011;4012;48.896;9.192;2023-05-21T05:25:05;13.70;;;11.50;;
7933;SDS011;4012;48.896;9.192;2023-05-21T05:27:31;11.97;;;10.67;;
7933;SDS011;4012;48.896;9.192;2023-05-21T05:29:57;15.90;;;11.83;;
7933;SDS011;4012;48.896;9.192;2023-05-21T05:32:23;13.33;;;11.50;;
7933;SDS011;4012;48.896;9.192;2023-05-21T05:34:48;13.33;;;11.00;;
7933;SDS011;4012;48.896;9.192;2023-05-21T05:37:14;16.00;;;11.33;;
7933;SDS011;4012;48.896;9.192;2023-05-21T05:39:40;15.53;;;11.23;;
7933;SDS011;4012;48.896;9.192;2023-05-21T05:42:05;14.40;;;10.73;;
7933;SDS011;4012;48.896;9.192;2023-05-21T05:44:31;13.93;;;11.23;;
7933;SDS011;4012;48.896;9.192;2023-05-21T05:46:56;12.60;;;10.97;;
7933;SDS011;4012;48.896;9.192;2023-05-21T05:49:22;13.50;;;11.40;;
7933;SDS011;4012;48.896;9.192;2023-05-21T05:51:47;12.57;;;11.27;;
7933;SDS011;4012;48.896;9.192;2023-05-21T05:54:13;13.00;;;11.70;;
7933;SDS011;4012;48.896;9.192;2023-05-21T05:56:39;16.63;;;12.00;;
7933;SDS011;4012;48.896;9.192;2023-05-21T05:59:04;13.80;;;11.40;;
7933;SDS011;4012;48.896;9.192;2023-05-21T06:01:30;13.70;;;10.97;;
7933;SDS011;4012;48.896;9.192;2023-05-21T06:03:56;14.80;;;11.23;;
7933;SDS011;4012;48.896;9.192;2023-05-21T06:06:21;14.17;;;11.87;;
7933;SDS011;4012;48.896;9.192;2023-05-21T06:08:47;11.90;;;10.70;;
7933;SDS011;4012;48.896;9.192;2023-05-21T06:11:12;13.73;;;11.40;;
7933;SDS011;4012;48.896;9.192;2023-05-21T06:13:41;12.00;;;10.70;;
7933;SDS011;4012;48.896;9.192;2023-05-21T06:16:06;11.07;;;9.97;;
7933;SDS011;4012;48.896;9.192;2023-05-21T06:18:33;12.93;;;10.40;;
7933;SDS011;4012;48.896;9.192;2023-05-21T06:20:59;12.57;;;10.70;;
7933;SDS011;4012;48.896;9.192;2023-05-21T06:23:25;12.10;;;10.90;;
7933;SDS011;4012;48.896;9.192;2023-05-21T06:25:51;12.83;;;11.37;;
7933;SDS011;4012;48.896;9.192;2023-05-21T06:28:16;11.77;;;10.57;;
7933;SDS011;4012;48.896;9.192;2023-05-21T06:30:42;12.87;;;10.73;;
7933;SDS011;4012;48.896;9.192;2023-05-21T06:33:07;11.17;;;9.87;;
7933;SDS011;4012;48.896;9.192;2023-05-21T06:35:33;10.93;;;9.27;;
7933;SDS011;4012;48.896;9.192;2023-05-21T06:38:01;11.80;;;9.37;;
7933;SDS011;4012;48.896;9.192;2023-05-21T06:40:26;10.17;;;9.17;;
7933;SDS011;4012;48.896;9.192;2023-05-21T06:42:52;10.57;;;9.53;;
7933;SDS011;4012;48.896;9.192;2023-05-21T06:45:18;10.27;;;9.10;;
7933;SDS011;4012;48.896;9.192;2023-05-21T06:47:44;10.50;;;9.40;;
7933;SDS011;4012;48.896;9.192;2023-05-21T06:50:09;10.03;;;9.03;;
7933;SDS011;4012;48.896;9.192;2023-05-21T06:52:35;9.10;;;8.20;;
7933;SDS011;4012;48.896;9.192;2023-05-21T06:55:01;9.30;;;8.03;;
7933;SDS011;4012;48.896;9.192;2023-05-21T06:57:26;9.83;;;8.90;;
7933;SDS011;4012;48.896;9.192;2023-05-21T06:59:52;8.77;;;7.90;;
7933;SDS011;4012;48.896;9.192;2023-05-21T07:02:20;8.97;;;8.07;;
7933;SDS011;4012;48.896;9.192;2023-05-21T07:04:46;10.27;;;8.87;;
7933;SDS011;4012;48.896;9.192;2023-05-21T07:07:12;9.20;;;8.30;;
7933;SDS011;4012;48.896;9.192;2023-05-21T07:09:37;9.23;;;8.30;;
7933;SDS011;4012;48.896;9.192;2023-05-21T07:12:03;9.13;;;7.80;;
7933;SDS011;4012;48.896;9.192;2023-05-21T07:14:28;8.87;;;7.97;;
7933;SDS011;4012;48.896;9.192;2023-05-21T07:16:54;8.90;;;8.03;;
7933;SDS011;4012;48.896;9.192;2023-05-21T07:19:19;8.60;;;7.70;;
7933;SDS011;4012;48.896;9.192;2023-05-21T07:21:45;9.33;;;8.30;;
7933;SDS011;4012;48.896;9.192;2023-05-21T07:24:11;8.60;;;7.80;;
7933;SDS011;4012;48.896;9.192;2023-05-21T07:26:36;8.47;;;7.77;;
7933;SDS011;4012;48.896;9.192;2023-05-21T07:29:02;8.20;;;7.40;;
7933;SDS011;4012;48.896;9.192;2023-05-21T07:31:27;10.20;;;7.50;;
7933;SDS011;4012;48.896;9.192;2023-05-21T07:33:53;7.90;;;7.17;;
7933;SDS011;4012;48.896;9.192;2023-05-21T07:36:19;7.57;;;6.83;;
7933;SDS011;4012;48.896;9.192;2023-05-21T07:38:44;8.47;;;7.67;;
7933;SDS011;4012;48.896;9.192;2023-05-21T07:41:10;7.83;;;7.13;;
7933;SDS011;4012;48.896;9.192;2023-05-21T07:43:35;7.77;;;7.07;;
7933;SDS011;4012;48.896;9.192;2023-05-21T07:46:02;8.07;;;7.27;;
7933;SDS011;4012;48.896;9.192;2023-05-21T07:48:28;7.17;;;6.57;;
7933;SDS011;4012;48.896;9.192;2023-05-21T07:50:53;7.73;;;7.03;;
7933;SDS011;4012;48.896;9.192;2023-05-21T07:53:20;7.23;;;6.53;;
7933;SDS011;4012;48.896;9.192;2023-05-21T07:55:46;6.77;;;6.07;;
7933;SDS011;4012;48.896;9.192;2023-05-21T07:58:17;7.83;;;7.03;;
7933;SDS011;4012;48.896;9.192;2023-05-21T08:00:44;10.00;;;6.60;;
7933;SDS011;4012;48.896;9.192;2023-05-21T08:03:14;8.23;;;6.63;;
7933;SDS011;4012;48.896;9.192;2023-05-21T08:05:41;7.37;;;6.67;;
7933;SDS011;4012;48.896;9.192;2023-05-21T08:08:16;6.13;;;5.63;;
7933;SDS011;4012;48.896;9.192;2023-05-21T08:10:43;8.20;;;7.07;;
7933;SDS011;4012;48.896;9.192;2023-05-21T08:13:12;7.33;;;6.63;;
7933;SDS011;4012;48.896;9.192;2023-05-21T08:15:39;5.47;;;4.97;;
7933;SDS011;4012;48.896;9.192;2023-05-21T08:18:05;7.07;;;6.37;;
7933;SDS011;4012;48.896;9.192;2023-05-21T08:20:30;7.20;;;6.17;;
7933;SDS011;4012;48.896;9.192;2023-05-21T08:22:59;7.10;;;6.40;;
7933;SDS011;4012;48.896;9.192;2023-05-21T08:25:27;7.93;;;6.90;;
7933;SDS011;4012;48.896;9.192;2023-05-21T08:27:53;8.33;;;6.30;;
7933;SDS011;4012;48.896;9.192;2023-05-21T08:30:19;6.77;;;6.17;;
7933;SDS011;4012;48.896;9.192;2023-05-21T08:32:45;7.00;;;6.40;;
7933;SDS011;4012;48.896;9.192;2023-05-21T08:35:13;6.57;;;5.97;;
7933;SDS011;4012;48.896;9.192;2023-05-21T08:37:38;6.30;;;5.70;;
7933;SDS011;4012;48.896;9.192;2023-05-21T08:40:04;6.40;;;5.80;;
7933;SDS011;4012;48.896;9.192;2023-05-21T08:45:12;6.27;;;5.67;;
7933;SDS011;4012;48.896;9.192;2023-05-21T08:47:41;5.73;;;5.20;;
7933;SDS011;4012;48.896;9.192;2023-05-21T08:50:08;7.87;;;6.43;;
7933;SDS011;4012;48.896;9.192;2023-05-21T08:52:35;5.73;;;5.23;;
7933;SDS011;4012;48.896;9.192;2023-05-21T08:55:04;7.60;;;6.03;;
7933;SDS011;4012;48.896;9.192;2023-05-21T08:57:31;6.70;;;6.10;;
7933;SDS011;4012;48.896;9.192;2023-05-21T08:59:57;6.60;;;6.00;;
7933;SDS011;4012;48.896;9.192;2023-05-21T09:02:23;6.10;;;5.57;;
7933;SDS011;4012;48.896;9.192;2023-05-21T09:04:50;6.90;;;6.30;;
7933;SDS011;4012;48.896;9.192;2023-05-21T09:07:20;6.47;;;5.90;;
7933;SDS011;4012;48.896;9.192;2023-05-21T09:12:21;6.43;;;5.83;;
7933;SDS011;4012;48.896;9.192;2023-05-21T09:14:48;6.77;;;6.10;;
7933;SDS011;4012;48.896;9.192;2023-05-21T09:17:14;7.00;;;6.17;;
7933;SDS011;4012;48.896;9.192;2023-05-21T09:20:25;6.77;;;6.07;;
7933;SDS011;4012;48.896;9.192;2023-05-21T09:22:33;6.97;;;6.27;;
7933;SDS011;4012;48.896;9.192;2023-05-21T09:25:02;6.23;;;5.73;;
7933;SDS011;4012;48.896;9.192;2023-05-21T09:27:31;6.53;;;5.93;;
7933;SDS011;4012;48.896;9.192;2023-05-21T09:29:56;6.10;;;5.50;;
7933;SDS011;4012;48.896;9.192;2023-05-21T09:32:22;6.00;;;5.40;;
7933;SDS011;4012;48.896;9.192;2023-05-21T09:34:47;8.63;;;6.17;;
7933;SDS011;4012;48.896;9.192;2023-05-21T09:37:14;6.27;;;5.67;;
7933;SDS011;4012;48.896;9.192;2023-05-21T09:39:40;5.90;;;5.40;;
7933;SDS011;4012;48.896;9.192;2023-05-21T09:42:07;5.70;;;5.07;;
7933;SDS011;4012;48.896;9.192;2023-05-21T09:44:33;6.20;;;5.60;;
7933;SDS011;4012;48.896;9.192;2023-05-21T09:46:59;5.17;;;4.73;;
7933;SDS011;4012;48.896;9.192;2023-05-21T09:49:26;5.30;;;4.80;;
7933;SDS011;4012;48.896;9.192;2023-05-21T09:51:55;5.70;;;5.20;;
7933;SDS011;4012;48.896;9.192;2023-05-21T09:54:21;5.77;;;5.27;;
7933;SDS011;4012;48.896;9.192;2023-05-21T09:56:48;5.67;;;5.17;;
7933;SDS011;4012;48.896;9.192;2023-05-21T09:59:17;5.83;;;5.23;;
7933;SDS011;4012;48.896;9.192;2023-05-21T10:01:43;5.40;;;4.90;;
7933;SDS011;4012;48.896;9.192;2023-05-21T10:04:09;5.43;;;4.93;;
7933;SDS011;4012;48.896;9.192;2023-05-21T10:06:42;5.47;;;4.97;;
7933;SDS011;4012;48.896;9.192;2023-05-21T10:09:11;5.77;;;5.27;;
7933;SDS011;4012;48.896;9.192;2023-05-21T10:11:39;4.70;;;4.30;;
7933;SDS011;4012;48.896;9.192;2023-05-21T10:14:13;6.17;;;4.87;;
7933;SDS011;4012;48.896;9.192;2023-05-21T10:16:41;5.50;;;4.50;;
7933;SDS011;4012;48.896;9.192;2023-05-21T10:19:07;5.27;;;4.80;;
7933;SDS011;4012;48.896;9.192;2023-05-21T10:21:36;5.50;;;5.00;;
7933;SDS011;4012;48.896;9.192;2023-05-21T10:24:03;5.37;;;4.87;;
7933;SDS011;4012;48.896;9.192;2023-05-21T10:26:30;4.90;;;4.50;;
7933;SDS011;4012;48.896;9.192;2023-05-21T10:28:57;4.80;;;4.27;;
7933;SDS011;4012;48.896;9.192;2023-05-21T10:31:24;5.80;;;4.17;;
7933;SDS011;4012;48.896;9.192;2023-05-21T10:33:52;4.90;;;4.40;;
7933;SDS011;4012;48.896;9.192;2023-05-21T10:36:18;4.73;;;4.33;;
7933;SDS011;4012;48.896;9.192;2023-05-21T10:38:45;5.00;;;4.50;;
7933;SDS011;4012;48.896;9.192;2023-05-21T10:41:12;4.97;;;4.37;;
7933;SDS011;4012;48.896;9.192;2023-05-21T11:00:49;5.00;;;4.50;;
7933;SDS011;4012;48.896;9.192;2023-05-21T11:03:17;5.10;;;4.50;;
7933;SDS011;4012;48.896;9.192;2023-05-21T11:05:50;4.70;;;4.30;;
7933;SDS011;4012;48.896;9.192;2023-05-21T11:10:54;6.00;;;5.30;;
7933;SDS011;4012;48.896;9.192;2023-05-21T11:13:22;5.03;;;4.53;;
7933;SDS011;4012;48.896;9.192;2023-05-21T11:21:10;4.43;;;4.03;;
7933;SDS011;4012;48.896;9.192;2023-05-21T11:26:19;10.27;;;4.27;;
7933;SDS011;4012;48.896;9.192;2023-05-21T11:28:49;5.57;;;4.77;;
7933;SDS011;4012;48.896;9.192;2023-05-21T11:31:30;5.20;;;4.70;;
7933;SDS011;4012;48.896;9.192;2023-05-21T11:39:54;4.80;;;4.40;;
7933;SDS011;4012;48.896;9.192;2023-05-21T11:42:28;4.63;;;4.20;;
7933;SDS011;4012;48.896;9.192;2023-05-21T11:44:58;5.67;;;4.97;;
7933;SDS011;4012;48.896;9.192;2023-05-21T11:47:26;4.60;;;4.17;;
7933;SDS011;4012;48.896;9.192;2023-05-21T11:49:52;4.87;;;4.40;;
7933;SDS011;4012;48.896;9.192;2023-05-21T11:52:18;5.43;;;4.43;;
7933;SDS011;4012;48.896;9.192;2023-05-21T11:54:46;5.40;;;4.40;;
7933;SDS011;4012;48.896;9.192;2023-05-21T11:57:18;5.40;;;4.73;;
7933;SDS011;4012;48.896;9.192;2023-05-21T11:59:44;5.00;;;4.57;;
7933;SDS011;4012;48.896;9.192;2023-05-21T12:02:16;4.90;;;4.27;;
7933;SDS011;4012;48.896;9.192;2023-05-21T12:04:44;4.50;;;4.10;;
7933;SDS011;4012;48.896;9.192;2023-05-21T12:07:11;4.53;;;4.10;;
7933;SDS011;4012;48.896;9.192;2023-05-21T12:09:42;5.50;;;4.47;;
7933;SDS011;4012;48.896;9.192;2023-05-21T12:12:10;4.67;;;4.10;;
7933;SDS011;4012;48.896;9.192;2023-05-21T12:14:42;5.40;;;4.90;;
7933;SDS011;4012;48.896;9.192;2023-05-21T12:17:16;5.33;;;4.40;;
7933;SDS011;4012;48.896;9.192;2023-05-21T12:19:46;5.00;;;4.50;;
7933;SDS011;4012;48.896;9.192;2023-05-21T12:22:14;4.50;;;4.10;;
7933;SDS011;4012;48.896;9.192;2023-05-21T12:24:40;5.30;;;4.33;;
7933;SDS011;4012;48.896;9.192;2023-05-21T12:27:07;4.63;;;4.23;;
7933;SDS011;4012;48.896;9.192;2023-05-21T12:29:35;5.03;;;4.20;;
7933;SDS011;4012;48.896;9.192;2023-05-21T12:32:02;5.13;;;4.40;;
7933;SDS011;4012;48.896;9.192;2023-05-21T12:37:28;5.27;;;4.80;;
7933;SDS011;4012;48.896;9.192;2023-05-21T12:39:59;4.27;;;3.90;;
7933;SDS011;4012;48.896;9.192;2023-05-21T12:42:26;4.90;;;4.23;;
7933;SDS011;4012;48.896;9.192;2023-05-21T12:44:58;5.00;;;4.50;;
7933;SDS011;4012;48.896;9.192;2023-05-21T12:47:26;4.40;;;4.00;;
7933;SDS011;4012;48.896;9.192;2023-05-21T12:49:53;4.87;;;4.47;;
7933;SDS011;4012;48.896;9.192;2023-05-21T12:52:22;5.63;;;4.17;;
7933;SDS011;4012;48.896;9.192;2023-05-21T12:54:49;4.70;;;4.30;;
7933;SDS011;4012;48.896;9.192;2023-05-21T12:57:23;5.03;;;4.50;;
7933;SDS011;4012;48.896;9.192;2023-05-21T12:59:50;4.90;;;4.40;;
7933;SDS011;4012;48.896;9.192;2023-05-21T13:02:24;5.33;;;4.80;;
7933;SDS011;4012;48.896;9.192;2023-05-21T13:04:58;4.73;;;4.13;;
7933;SDS011;4012;48.896;9.192;2023-05-21T13:07:31;4.43;;;4.03;;
7933;SDS011;4012;48.896;9.192;2023-05-21T13:09:58;4.80;;;4.27;;
7933;SDS011;4012;48.896;9.192;2023-05-21T13:12:26;5.90;;;4.23;;
7933;SDS011;4012;48.896;9.192;2023-05-21T13:14:54;4.57;;;4.07;;
7933;SDS011;4012;48.896;9.192;2023-05-21T13:17:22;4.73;;;4.13;;
7933;SDS011;4012;48.896;9.192;2023-05-21T13:20:07;4.47;;;4.07;;
7933;SDS011;4012;48.896;9.192;2023-05-21T13:22:40;4.67;;;4.27;;
7933;SDS011;4012;48.896;9.192;2023-05-21T13:25:08;4.77;;;4.27;;
7933;SDS011;4012;48.896;9.192;2023-05-21T13:27:35;4.90;;;4.40;;
7933;SDS011;4012;48.896;9.192;2023-05-21T13:30:01;4.57;;;4.10;;
7933;SDS011;4012;48.896;9.192;2023-05-21T13:32:27;4.37;;;3.97;;
7933;SDS011;4012;48.896;9.192;2023-05-21T13:34:52;5.57;;;4.00;;
7933;SDS011;4012;48.896;9.192;2023-05-21T13:37:21;5.27;;;4.10;;
7933;SDS011;4012;48.896;9.192;2023-05-21T13:39:46;4.73;;;4.10;;
7933;SDS011;4012;48.896;9.192;2023-05-21T13:42:12;4.07;;;3.70;;
7933;SDS011;4012;48.896;9.192;2023-05-21T13:44:38;4.50;;;3.70;;
7933;SDS011;4012;48.896;9.192;2023-05-21T13:47:04;3.90;;;3.50;;
7933;SDS011;4012;48.896;9.192;2023-05-21T13:49:31;4.70;;;3.87;;
7933;SDS011;4012;48.896;9.192;2023-05-21T13:51:57;4.77;;;3.90;;
7933;SDS011;4012;48.896;9.192;2023-05-21T13:54:24;4.73;;;4.17;;
7933;SDS011;4012;48.896;9.192;2023-05-21T13:56:50;4.30;;;3.90;;
7933;SDS011;4012;48.896;9.192;2023-05-21T13:59:16;4.63;;;4.10;;
7933;SDS011;4012;48.896;9.192;2023-05-21T14:01:42;4.13;;;3.73;;
7933;SDS011;4012;48.896;9.192;2023-05-21T14:04:12;4.60;;;4.20;;
7933;SDS011;4012;48.896;9.192;2023-05-21T14:06:38;3.93;;;3.63;;
7933;SDS011;4012;48.896;9.192;2023-05-21T14:09:05;9.57;;;6.90;;
7933;SDS011;4012;48.896;9.192;2023-05-21T14:11:31;4.83;;;4.17;;
7933;SDS011;4012;48.896;9.192;2023-05-21T14:13:56;4.03;;;3.63;;
7933;SDS011;4012;48.896;9.192;2023-05-21T14:16:22;4.67;;;4.20;;
7933;SDS011;4012;48.896;9.192;2023-05-21T14:18:51;4.20;;;3.57;;
7933;SDS011;4012;48.896;9.192;2023-05-21T14:21:20;4.40;;;4.00;;
7933;SDS011;4012;48.896;9.192;2023-05-21T14:23:46;3.80;;;3.50;;
7933;SDS011;4012;48.896;9.192;2023-05-21T14:26:12;4.53;;;3.93;;
7933;SDS011;4012;48.896;9.192;2023-05-21T14:28:39;4.10;;;3.67;;
7933;SDS011;4012;48.896;9.192;2023-05-21T14:31:05;4.07;;;3.50;;
7933;SDS011;4012;48.896;9.192;2023-05-21T14:33:31;4.50;;;3.73;;
7933;SDS011;4012;48.896;9.192;2023-05-21T14:35:57;6.20;;;3.70;;
7933;SDS011;4012;48.896;9.192;2023-05-21T14:38:23;3.80;;;3.20;;
7933;SDS011;4012;48.896;9.192;2023-05-21T14:40:49;3.93;;;3.50;;
7933;SDS011;4012;48.896;9.192;2023-05-21T14:43:15;4.70;;;3.90;;
7933;SDS011;4012;48.896;9.192;2023-05-21T14:45:41;3.30;;;3.00;;
7933;SDS011;4012;48.896;9.192;2023-05-21T14:48:06;3.80;;;3.40;;
7933;SDS011;4012;48.896;9.192;2023-05-21T14:50:36;5.37;;;3.80;;
7933;SDS011;4012;48.896;9.192;2023-05-21T14:53:08;3.70;;;3.40;;
7933;SDS011;4012;48.896;9.192;2023-05-21T14:55:35;5.10;;;3.73;;
7933;SDS011;4012;48.896;9.192;2023-05-21T14:58:02;5.27;;;3.53;;
7933;SDS011;4012;48.896;9.192;2023-05-21T15:00:31;5.27;;;3.30;;
7933;SDS011;4012;48.896;9.192;2023-05-21T15:02:57;4.07;;;3.50;;
7933;SDS011;4012;48.896;9.192;2023-05-21T15:05:26;4.13;;;3.60;;
7933;SDS011;4012;48.896;9.192;2023-05-21T15:07:53;3.90;;;3.50;;
7933;SDS011;4012;48.896;9.192;2023-05-21T15:10:25;4.17;;;3.77;;
7933;SDS011;4012;48.896;9.192;2023-05-21T15:12:52;4.40;;;4.00;;
7933;SDS011;4012;48.896;9.192;2023-05-21T15:15:18;5.57;;;3.93;;
7933;SDS011;4012;48.896;9.192;2023-05-21T15:17:45;4.53;;;3.73;;
7933;SDS011;4012;48.896;9.192;2023-05-21T15:20:12;4.13;;;3.73;;
7933;SDS011;4012;48.896;9.192;2023-05-21T15:22:38;4.50;;;3.80;;
7933;SDS011;4012;48.896;9.192;2023-05-21T15:25:04;3.80;;;3.50;;
7933;SDS011;4012;48.896;9.192;2023-05-21T15:27:31;5.53;;;3.90;;
7933;SDS011;4012;48.896;9.192;2023-05-21T15:29:57;3.80;;;3.50;;
7933;SDS011;4012;48.896;9.192;2023-05-21T15:32:22;4.03;;;3.63;;
7933;SDS011;4012;48.896;9.192;2023-05-21T15:34:48;4.23;;;3.73;;
7933;SDS011;4012;48.896;9.192;2023-05-21T15:37:14;6.17;;;3.93;;
7933;SDS011;4012;48.896;9.192;2023-05-21T15:39:41;3.80;;;3.47;;
7933;SDS011;4012;48.896;9.192;2023-05-21T15:42:07;3.60;;;3.30;;
7933;SDS011;4012;48.896;9.192;2023-05-21T15:44:33;4.37;;;3.97;;